sensor_id;sensor_type;location;lat;lon;timestamp;pressure;altitude;pressure_sealevel;temperature;humidity
13732;BME280;6937;56.096;12.664;2022-08-01T00:00:10;101688.97;;;18.08;100.00
13732;BME280;6937;56.096;12.664;2022-08-01T00:02:37;101690.41;;;18.12;100.00
13732;BME280;6937;56.096;12.664;2022-08-01T00:05:06;101685.16;;;18.11;100.00
13732;BME280;6937;56.096;12.664;2022-08-01T00:07:33;101681.59;;;18.10;100.00
13732;BME280;6937;56.096;12.664;2022-08-01T00:09:58;101679.13;;;18.07;100.00
13732;BME280;6937;56.096;12.664;2022-08-01T00:12:23;101681.84;;;18.07;100.00
13732;BME280;6937;56.096;12.664;2022-08-01T00:14:49;101663.16;;;18.04;100.00
13732;BME280;6937;56.096;12.664;2022-08-01T00:17:14;101657.47;;;17.98;100.00
13732;BME280;6937;56.096;12.664;2022-08-01T00:19:40;101663.91;;;18.06;100.00
13732;BME280;6937;56.096;12.664;2022-08-01T00:22:05;101658.22;;;18.09;100.00
13732;BME280;6937;56.096;12.664;2022-08-01T00:24:31;101657.06;;;18.12;100.00
13732;BME280;6937;56.096;12.664;2022-08-01T00:26:56;101660.66;;;18.12;100.00
13732;BME280;6937;56.096;12.664;2022-08-01T00:29:21;101662.94;;;18.17;100.00
13732;BME280;6937;56.096;12.664;2022-08-01T00:31:47;101664.66;;;18.18;100.00
13732;BME280;6937;56.096;12.664;2022-08-01T00:34:12;101658.50;;;18.16;100.00
13732;BME280;6937;56.096;12.664;2022-08-01T00:36:38;101646.72;;;18.17;100.00
13732;BME280;6937;56.096;12.664;2022-08-01T00:39:03;101646.41;;;18.20;100.00
13732;BME280;6937;56.096;12.664;2022-08-01T00:41:29;101642.56;;;18.22;100.00
13732;BME280;6937;56.096;12.664;2022-08-01T00:43:54;101647.75;;;18.25;100.00
13732;BME280;6937;56.096;12.664;2022-08-01T00:46:20;101651.16;;;18.27;100.00
13732;BME280;6937;56.096;12.664;2022-08-01T00:48:45;101644.00;;;18.26;100.00
13732;BME280;6937;56.096;12.664;2022-08-01T00:51:11;101640.72;;;18.23;100.00
13732;BME280;6937;56.096;12.664;2022-08-01T00:53:38;101633.63;;;18.22;100.00
13732;BME280;6937;56.096;12.664;2022-08-01T00:56:04;101634.63;;;18.21;100.00
13732;BME280;6937;56.096;12.664;2022-08-01T00:58:30;101626.19;;;18.14;100.00
13732;BME280;6937;56.096;12.664;2022-08-01T01:00:58;101615.34;;;18.05;100.00
13732;BME280;6937;56.096;12.664;2022-08-01T01:03:23;101619.59;;;18.07;100.00
13732;BME280;6937;56.096;12.664;2022-08-01T01:06:11;101616.78;;;18.09;100.00
13732;BME280;6937;56.096;12.664;2022-08-01T01:09:15;101621.19;;;18.10;100.00
13732;BME280;6937;56.096;12.664;2022-08-01T01:12:07;101625.34;;;18.14;100.00
13732;BME280;6937;56.096;12.664;2022-08-01T01:14:51;101621.22;;;18.19;100.00
13732;BME280;6937;56.096;12.664;2022-08-01T01:17:23;101620.09;;;18.22;100.00
13732;BME280;6937;56.096;12.664;2022-08-01T01:19:54;101626.22;;;18.24;100.00
13732;BME280;6937;56.096;12.664;2022-08-01T01:27:57;101610.84;;;18.24;100.00
13732;BME280;6937;56.096;12.664;2022-08-01T01:30:28;101606.28;;;18.25;100.00
13732;BME280;6937;56.096;12.664;2022-08-01T01:32:58;101586.19;;;18.18;100.00
13732;BME280;6937;56.096;12.664;2022-08-01T01:35:27;101605.00;;;18.29;100.00
13732;BME280;6937;56.096;12.664;2022-08-01T01:38:01;101604.00;;;18.30;100.00
13732;BME280;6937;56.096;12.664;2022-08-01T01:40:30;101603.72;;;18.33;100.00
13732;BME280;6937;56.096;12.664;2022-08-01T01:42:55;101601.28;;;18.30;100.00
13732;BME280;6937;56.096;12.664;2022-08-01T01:45:24;101601.72;;;18.25;100.00
13732;BME280;6937;56.096;12.664;2022-08-01T01:47:50;101605.38;;;18.15;100.00
13732;BME280;6937;56.096;12.664;2022-08-01T01:50:22;101578.44;;;18.04;100.00
13732;BME280;6937;56.096;12.664;2022-08-01T01:52:49;101593.13;;;18.01;100.00
13732;BME280;6937;56.096;12.664;2022-08-01T01:55:15;101592.53;;;17.98;100.00
13732;BME280;6937;56.096;12.664;2022-08-01T01:57:44;101601.63;;;17.97;100.00
13732;BME280;6937;56.096;12.664;2022-08-01T02:00:12;101597.66;;;17.91;100.00
13732;BME280;6937;56.096;12.664;2022-08-01T02:02:39;101589.81;;;17.88;100.00
13732;BME280;6937;56.096;12.664;2022-08-01T02:05:09;101591.94;;;17.84;100.00
13732;BME280;6937;56.096;12.664;2022-08-01T02:07:35;101595.63;;;17.83;100.00
13732;BME280;6937;56.096;12.664;2022-08-01T02:10:03;101598.63;;;17.80;100.00
13732;BME280;6937;56.096;12.664;2022-08-01T02:12:32;101572.66;;;17.68;100.00
13732;BME280;6937;56.096;12.664;2022-08-01T02:15:00;101599.44;;;17.81;100.00
13732;BME280;6937;56.096;12.664;2022-08-01T02:17:26;101603.16;;;17.80;100.00
13732;BME280;6937;56.096;12.664;2022-08-01T02:19:53;101587.63;;;17.72;100.00
13732;BME280;6937;56.096;12.664;2022-08-01T02:22:36;101595.34;;;17.77;100.00
13732;BME280;6937;56.096;12.664;2022-08-01T02:25:12;101580.09;;;17.76;100.00
13732;BME280;6937;56.096;12.664;2022-08-01T02:27:45;101592.06;;;17.83;100.00
13732;BME280;6937;56.096;12.664;2022-08-01T02:30:13;101598.34;;;17.83;100.00
13732;BME280;6937;56.096;12.664;2022-08-01T02:32:47;101601.19;;;17.82;100.00
13732;BME280;6937;56.096;12.664;2022-08-01T02:35:20;101597.88;;;17.78;100.00
13732;BME280;6937;56.096;12.664;2022-08-01T02:37:48;101614.97;;;17.79;100.00
13732;BME280;6937;56.096;12.664;2022-08-01T02:40:16;101617.09;;;17.75;100.00
13732;BME280;6937;56.096;12.664;2022-08-01T02:42:46;101615.06;;;17.68;100.00
13732;BME280;6937;56.096;12.664;2022-08-01T02:45:13;101632.16;;;17.68;100.00
13732;BME280;6937;56.096;12.664;2022-08-01T02:47:40;101635.84;;;17.67;100.00
13732;BME280;6937;56.096;12.664;2022-08-01T02:50:08;101635.84;;;17.67;100.00
13732;BME280;6937;56.096;12.664;2022-08-01T02:52:36;101655.63;;;17.68;100.00
13732;BME280;6937;56.096;12.664;2022-08-01T02:55:03;101672.13;;;17.65;100.00
13732;BME280;6937;56.096;12.664;2022-08-01T02:57:30;101684.19;;;17.61;100.00
13732;BME280;6937;56.096;12.664;2022-08-01T02:59:58;101693.00;;;17.63;100.00
13732;BME280;6937;56.096;12.664;2022-08-01T03:02:24;101733.28;;;17.66;100.00
13732;BME280;6937;56.096;12.664;2022-08-01T03:04:52;101744.28;;;17.64;100.00
13732;BME280;6937;56.096;12.664;2022-08-01T03:07:18;101759.63;;;17.64;100.00
13732;BME280;6937;56.096;12.664;2022-08-01T03:09:45;101790.09;;;17.66;100.00
13732;BME280;6937;56.096;12.664;2022-08-01T03:12:15;101797.47;;;17.64;100.00
13732;BME280;6937;56.096;12.664;2022-08-01T03:14:43;101812.84;;;17.63;100.00
13732;BME280;6937;56.096;12.664;2022-08-01T03:17:10;101838.91;;;17.64;100.00
13732;BME280;6937;56.096;12.664;2022-08-01T03:19:38;101860.38;;;17.66;100.00
13732;BME280;6937;56.096;12.664;2022-08-01T03:22:06;101878.59;;;17.64;100.00
13732;BME280;6937;56.096;12.664;2022-08-01T03:24:34;101897.53;;;17.64;100.00
13732;BME280;6937;56.096;12.664;2022-08-01T03:27:02;101909.31;;;17.63;100.00
13732;BME280;6937;56.096;12.664;2022-08-01T03:29:28;101922.38;;;17.58;100.00
13732;BME280;6937;56.096;12.664;2022-08-01T03:31:55;101941.31;;;17.58;100.00
13732;BME280;6937;56.096;12.664;2022-08-01T03:34:22;101957.53;;;17.58;100.00
13732;BME280;6937;56.096;12.664;2022-08-01T03:37:03;101975.31;;;17.60;100.00
13732;BME280;6937;56.096;12.664;2022-08-01T03:39:39;101992.53;;;17.59;100.00
13732;BME280;6937;56.096;12.664;2022-08-01T03:42:08;102006.28;;;17.56;100.00
13732;BME280;6937;56.096;12.664;2022-08-01T03:44:35;102027.81;;;17.58;100.00
13732;BME280;6937;56.096;12.664;2022-08-01T03:47:07;102040.47;;;17.57;100.00
13732;BME280;6937;56.096;12.664;2022-08-01T03:49:40;102078.06;;;17.71;100.00
13732;BME280;6937;56.096;12.664;2022-08-01T03:52:07;102084.44;;;17.70;100.00
13732;BME280;6937;56.096;12.664;2022-08-01T03:54:41;102105.47;;;17.78;100.00
13732;BME280;6937;56.096;12.664;2022-08-01T03:57:09;102112.94;;;17.85;100.00
13732;BME280;6937;56.096;12.664;2022-08-01T03:59:35;102121.56;;;17.91;100.00
13732;BME280;6937;56.096;12.664;2022-08-01T04:02:02;102133.59;;;17.86;100.00
13732;BME280;6937;56.096;12.664;2022-08-01T04:04:29;102136.69;;;17.82;100.00
13732;BME280;6937;56.096;12.664;2022-08-01T04:06:55;102124.38;;;17.78;100.00
13732;BME280;6937;56.096;12.664;2022-08-01T04:09:21;102138.16;;;17.75;100.00
13732;BME280;6937;56.096;12.664;2022-08-01T04:11:47;102141.84;;;17.74;100.00
13732;BME280;6937;56.096;12.664;2022-08-01T04:14:12;102154.38;;;17.75;100.00
13732;BME280;6937;56.096;12.664;2022-08-01T04:16:37;102142.00;;;17.61;100.00
13732;BME280;6937;56.096;12.664;2022-08-01T04:19:03;102157.97;;;17.64;100.00
13732;BME280;6937;56.096;12.664;2022-08-01T04:21:31;102168.03;;;17.62;100.00
13732;BME280;6937;56.096;12.664;2022-08-01T04:23:59;102187.44;;;17.67;100.00
13732;BME280;6937;56.096;12.664;2022-08-01T04:26:27;102200.25;;;17.65;100.00
13732;BME280;6937;56.096;12.664;2022-08-01T04:28:54;102222.38;;;17.70;100.00
13732;BME280;6937;56.096;12.664;2022-08-01T04:31:21;102222.50;;;17.69;100.00
13732;BME280;6937;56.096;12.664;2022-08-01T04:33:49;102237.00;;;17.68;100.00
13732;BME280;6937;56.096;12.664;2022-08-01T04:36:17;102237.84;;;17.57;100.00
13732;BME280;6937;56.096;12.664;2022-08-01T04:38:45;102252.03;;;17.48;100.00
13732;BME280;6937;56.096;12.664;2022-08-01T04:41:12;102280.56;;;17.52;100.00
13732;BME280;6937;56.096;12.664;2022-08-01T04:43:38;102281.63;;;17.38;100.00
13732;BME280;6937;56.096;12.664;2022-08-01T04:46:08;102318.25;;;17.43;100.00
13732;BME280;6937;56.096;12.664;2022-08-01T04:48:38;102326.19;;;17.33;100.00
13732;BME280;6937;56.096;12.664;2022-08-01T04:51:06;102364.03;;;17.33;100.00
13732;BME280;6937;56.096;12.664;2022-08-01T04:53:36;102403.13;;;17.40;100.00
13732;BME280;6937;56.096;12.664;2022-08-01T04:56:01;102415.69;;;17.41;100.00
13732;BME280;6937;56.096;12.664;2022-08-01T04:58:27;102435.47;;;17.42;100.00
13732;BME280;6937;56.096;12.664;2022-08-01T05:00:52;102451.34;;;17.46;100.00
13732;BME280;6937;56.096;12.664;2022-08-01T05:03:18;102474.91;;;17.44;100.00
13732;BME280;6937;56.096;12.664;2022-08-01T05:05:43;102491.16;;;17.44;100.00
13732;BME280;6937;56.096;12.664;2022-08-01T05:08:08;102530.72;;;17.45;100.00
13732;BME280;6937;56.096;12.664;2022-08-01T05:10:35;102562.06;;;17.48;100.00
13732;BME280;6937;56.096;12.664;2022-08-01T05:13:00;102601.75;;;17.47;100.00
13732;BME280;6937;56.096;12.664;2022-08-01T05:15:25;102597.56;;;17.43;100.00
13732;BME280;6937;56.096;12.664;2022-08-01T05:17:52;102675.94;;;17.56;100.00
13732;BME280;6937;56.096;12.664;2022-08-01T05:20:17;102744.66;;;17.53;100.00
13732;BME280;6937;56.096;12.664;2022-08-01T05:22:42;102826.50;;;17.55;100.00
13732;BME280;6937;56.096;12.664;2022-08-01T05:25:08;102888.06;;;17.52;100.00
13732;BME280;6937;56.096;12.664;2022-08-01T05:27:34;102958.00;;;17.44;100.00
13732;BME280;6937;56.096;12.664;2022-08-01T05:30:06;103022.81;;;17.45;100.00
13732;BME280;6937;56.096;12.664;2022-08-01T05:32:31;103096.28;;;17.52;100.00
13732;BME280;6937;56.096;12.664;2022-08-01T05:34:57;103150.28;;;17.53;100.00
13732;BME280;6937;56.096;12.664;2022-08-01T05:37:22;103213.53;;;17.51;100.00
13732;BME280;6937;56.096;12.664;2022-08-01T05:39:47;103248.38;;;17.55;100.00
13732;BME280;6937;56.096;12.664;2022-08-01T05:42:13;103265.59;;;17.54;100.00
13732;BME280;6937;56.096;12.664;2022-08-01T05:44:38;103317.06;;;17.53;100.00
13732;BME280;6937;56.096;12.664;2022-08-01T05:47:04;103364.88;;;17.52;100.00
13732;BME280;6937;56.096;12.664;2022-08-01T05:49:29;103433.16;;;17.56;100.00
13732;BME280;6937;56.096;12.664;2022-08-01T05:51:54;103490.81;;;17.58;100.00
13732;BME280;6937;56.096;12.664;2022-08-01T05:54:20;103494.69;;;17.52;100.00
13732;BME280;6937;56.096;12.664;2022-08-01T05:56:45;103536.50;;;17.62;100.00
13732;BME280;6937;56.096;12.664;2022-08-01T05:59:11;103572.28;;;17.67;100.00
13732;BME280;6937;56.096;12.664;2022-08-01T06:01:36;103617.75;;;17.76;100.00
13732;BME280;6937;56.096;12.664;2022-08-01T06:04:01;103599.84;;;17.74;100.00
13732;BME280;6937;56.096;12.664;2022-08-01T06:06:27;103633.56;;;17.84;100.00
13732;BME280;6937;56.096;12.664;2022-08-01T06:08:52;103652.13;;;17.90;100.00
13732;BME280;6937;56.096;12.664;2022-08-01T06:11:18;103681.53;;;17.96;100.00
13732;BME280;6937;56.096;12.664;2022-08-01T06:13:43;103703.81;;;18.01;100.00
13732;BME280;6937;56.096;12.664;2022-08-01T06:16:08;103711.94;;;18.01;100.00
13732;BME280;6937;56.096;12.664;2022-08-01T06:18:34;103752.47;;;18.03;100.00
13732;BME280;6937;56.096;12.664;2022-08-01T06:20:59;103775.94;;;18.02;100.00
13732;BME280;6937;56.096;12.664;2022-08-01T06:23:24;103804.66;;;18.05;100.00
13732;BME280;6937;56.096;12.664;2022-08-01T06:25:53;103819.78;;;18.09;100.00
13732;BME280;6937;56.096;12.664;2022-08-01T06:28:20;103829.97;;;18.04;100.00
13732;BME280;6937;56.096;12.664;2022-08-01T06:30:45;103861.75;;;18.00;100.00
13732;BME280;6937;56.096;12.664;2022-08-01T06:33:10;103866.81;;;17.91;100.00
13732;BME280;6937;56.096;12.664;2022-08-01T06:35:36;103919.13;;;17.91;100.00
13732;BME280;6937;56.096;12.664;2022-08-01T06:38:02;103930.25;;;17.85;100.00
13732;BME280;6937;56.096;12.664;2022-08-01T06:40:28;103950.47;;;17.78;100.00
13732;BME280;6937;56.096;12.664;2022-08-01T06:42:53;104000.63;;;17.85;100.00
13732;BME280;6937;56.096;12.664;2022-08-01T06:45:19;104019.31;;;17.90;100.00
13732;BME280;6937;56.096;12.664;2022-08-01T06:47:47;104016.06;;;17.83;100.00
13732;BME280;6937;56.096;12.664;2022-08-01T06:50:13;104030.94;;;17.74;100.00
13732;BME280;6937;56.096;12.664;2022-08-01T06:52:40;104050.75;;;17.75;100.00
13732;BME280;6937;56.096;12.664;2022-08-01T06:55:05;104073.34;;;17.74;100.00
13732;BME280;6937;56.096;12.664;2022-08-01T06:57:31;104077.41;;;17.65;100.00
13732;BME280;6937;56.096;12.664;2022-08-01T06:59:56;104098.25;;;17.63;100.00
13732;BME280;6937;56.096;12.664;2022-08-01T07:02:22;104120.69;;;17.65;100.00
13732;BME280;6937;56.096;12.664;2022-08-01T07:04:48;104151.19;;;17.69;100.00
13732;BME280;6937;56.096;12.664;2022-08-01T07:07:14;104175.38;;;17.72;100.00
13732;BME280;6937;56.096;12.664;2022-08-01T07:09:39;104179.91;;;17.71;100.00
13732;BME280;6937;56.096;12.664;2022-08-01T07:12:08;104171.22;;;17.65;100.00
13732;BME280;6937;56.096;12.664;2022-08-01T07:14:34;104188.56;;;17.61;100.00
13732;BME280;6937;56.096;12.664;2022-08-01T07:17:00;104210.34;;;17.58;100.00
13732;BME280;6937;56.096;12.664;2022-08-01T07:19:25;104207.66;;;17.58;100.00
13732;BME280;6937;56.096;12.664;2022-08-01T07:21:50;104223.88;;;17.58;100.00
13732;BME280;6937;56.096;12.664;2022-08-01T07:24:16;104245.53;;;17.58;100.00
13732;BME280;6937;56.096;12.664;2022-08-01T07:26:42;104260.88;;;17.57;100.00
13732;BME280;6937;56.096;12.664;2022-08-01T07:29:09;104280.78;;;17.55;100.00
13732;BME280;6937;56.096;12.664;2022-08-01T07:31:34;104320.25;;;17.60;100.00
13732;BME280;6937;56.096;12.664;2022-08-01T07:33:59;104347.31;;;17.60;100.00
13732;BME280;6937;56.096;12.664;2022-08-01T07:36:24;104380.72;;;17.59;100.00
13732;BME280;6937;56.096;12.664;2022-08-01T07:38:50;104416.72;;;17.61;100.00
13732;BME280;6937;56.096;12.664;2022-08-01T07:41:15;104445.59;;;17.61;100.00
13732;BME280;6937;56.096;12.664;2022-08-01T07:43:41;104475.41;;;17.59;100.00
13732;BME280;6937;56.096;12.664;2022-08-01T07:46:07;104462.16;;;17.52;100.00
13732;BME280;6937;56.096;12.664;2022-08-01T07:48:32;104521.50;;;17.56;100.00
13732;BME280;6937;56.096;12.664;2022-08-01T07:50:58;104701.63;;;17.63;100.00
13732;BME280;6937;56.096;12.664;2022-08-01T07:53:24;104725.09;;;17.63;100.00
13732;BME280;6937;56.096;12.664;2022-08-01T07:55:49;104778.16;;;17.67;100.00
13732;BME280;6937;56.096;12.664;2022-08-01T07:58:15;104796.63;;;17.79;100.00
13732;BME280;6937;56.096;12.664;2022-08-01T08:00:41;104782.16;;;17.80;100.00
13732;BME280;6937;56.096;12.664;2022-08-01T08:03:07;104782.34;;;17.75;100.00
13732;BME280;6937;56.096;12.664;2022-08-01T08:05:33;104752.88;;;17.68;100.00
13732;BME280;6937;56.096;12.664;2022-08-01T08:08:04;104763.66;;;17.69;100.00
13732;BME280;6937;56.096;12.664;2022-08-01T08:10:29;104734.09;;;17.63;100.00
13732;BME280;6937;56.096;12.664;2022-08-01T08:12:55;104712.78;;;17.54;100.00
13732;BME280;6937;56.096;12.664;2022-08-01T08:15:20;104722.38;;;17.63;100.00
13732;BME280;6937;56.096;12.664;2022-08-01T08:17:45;104724.53;;;17.53;100.00
13732;BME280;6937;56.096;12.664;2022-08-01T08:20:11;104727.47;;;17.47;100.00
13732;BME280;6937;56.096;12.664;2022-08-01T08:22:37;104733.69;;;17.51;100.00
13732;BME280;6937;56.096;12.664;2022-08-01T08:25:03;104746.19;;;17.53;100.00
13732;BME280;6937;56.096;12.664;2022-08-01T08:27:28;104738.88;;;17.57;100.00
13732;BME280;6937;56.096;12.664;2022-08-01T08:29:53;104761.28;;;17.60;100.00
13732;BME280;6937;56.096;12.664;2022-08-01T08:32:19;104731.63;;;17.57;100.00
13732;BME280;6937;56.096;12.664;2022-08-01T08:34:44;104721.75;;;17.55;100.00
13732;BME280;6937;56.096;12.664;2022-08-01T08:37:10;104724.28;;;17.61;100.00
13732;BME280;6937;56.096;12.664;2022-08-01T08:39:36;104688.44;;;17.54;100.00
13732;BME280;6937;56.096;12.664;2022-08-01T08:42:06;104637.25;;;17.48;100.00
13732;BME280;6937;56.096;12.664;2022-08-01T08:44:31;104632.09;;;17.42;100.00
13732;BME280;6937;56.096;12.664;2022-08-01T08:47:00;104612.53;;;17.35;100.00
13732;BME280;6937;56.096;12.664;2022-08-01T08:49:28;104597.06;;;17.39;100.00
13732;BME280;6937;56.096;12.664;2022-08-01T08:51:58;104590.91;;;17.35;100.00
13732;BME280;6937;56.096;12.664;2022-08-01T08:54:25;104589.19;;;17.33;100.00
13732;BME280;6937;56.096;12.664;2022-08-01T08:56:52;104581.66;;;17.41;94.72
13732;BME280;6937;56.096;12.664;2022-08-01T08:59:18;104567.31;;;17.39;89.75
13732;BME280;6937;56.096;12.664;2022-08-01T09:01:44;104546.22;;;17.47;84.73
13732;BME280;6937;56.096;12.664;2022-08-01T09:04:10;104605.56;;;17.52;79.85
13732;BME280;6937;56.096;12.664;2022-08-01T09:06:37;104485.84;;;17.47;76.69
13732;BME280;6937;56.096;12.664;2022-08-01T09:09:03;104439.88;;;17.47;73.91
13732;BME280;6937;56.096;12.664;2022-08-01T09:11:29;104390.00;;;17.52;70.77
13732;BME280;6937;56.096;12.664;2022-08-01T09:14:21;104332.75;;;17.63;67.35
13732;BME280;6937;56.096;12.664;2022-08-01T09:17:04;104332.72;;;17.83;63.71
13732;BME280;6937;56.096;12.664;2022-08-01T09:19:37;103728.53;;;17.95;59.96
13732;BME280;6937;56.096;12.664;2022-08-01T09:22:05;104745.34;;;17.98;57.96
13732;BME280;6937;56.096;12.664;2022-08-01T09:24:33;104664.94;;;18.00;56.93
13732;BME280;6937;56.096;12.664;2022-08-01T09:27:01;104565.97;;;17.93;56.23
13732;BME280;6937;56.096;12.664;2022-08-01T09:29:29;104520.81;;;17.93;56.10
13732;BME280;6937;56.096;12.664;2022-08-01T09:31:55;104472.03;;;17.95;56.19
13732;BME280;6937;56.096;12.664;2022-08-01T09:34:31;104489.41;;;17.89;56.29
13732;BME280;6937;56.096;12.664;2022-08-01T09:36:59;104507.16;;;17.96;56.79
13732;BME280;6937;56.096;12.664;2022-08-01T09:39:45;104430.09;;;17.84;58.10
13732;BME280;6937;56.096;12.664;2022-08-01T09:42:20;104447.13;;;17.86;59.10
13732;BME280;6937;56.096;12.664;2022-08-01T09:44:46;104448.06;;;17.85;60.00
13732;BME280;6937;56.096;12.664;2022-08-01T09:47:13;104425.53;;;17.85;61.12
13732;BME280;6937;56.096;12.664;2022-08-01T09:49:40;104418.38;;;17.84;62.26
13732;BME280;6937;56.096;12.664;2022-08-01T09:52:15;104410.91;;;17.89;62.56
13732;BME280;6937;56.096;12.664;2022-08-01T09:54:42;104389.63;;;17.81;63.88
13732;BME280;6937;56.096;12.664;2022-08-01T09:57:16;104359.88;;;17.61;67.13
13732;BME280;6937;56.096;12.664;2022-08-01T09:59:44;104336.03;;;17.29;71.76
13732;BME280;6937;56.096;12.664;2022-08-01T10:02:14;104346.31;;;17.21;74.40
13732;BME280;6937;56.096;12.664;2022-08-01T10:04:51;104347.81;;;17.08;76.88
13732;BME280;6937;56.096;12.664;2022-08-01T10:07:18;104328.31;;;17.00;77.63
13732;BME280;6937;56.096;12.664;2022-08-01T10:09:44;104328.66;;;16.92;78.53
13732;BME280;6937;56.096;12.664;2022-08-01T10:12:12;104324.06;;;16.94;77.81
13732;BME280;6937;56.096;12.664;2022-08-01T10:14:38;104294.78;;;16.83;77.66
13732;BME280;6937;56.096;12.664;2022-08-01T10:17:07;104253.97;;;16.69;78.15
13732;BME280;6937;56.096;12.664;2022-08-01T10:19:34;104268.03;;;16.77;78.60
13732;BME280;6937;56.096;12.664;2022-08-01T10:22:00;104260.25;;;16.70;80.52
13732;BME280;6937;56.096;12.664;2022-08-01T10:24:28;104284.56;;;16.70;82.21
13732;BME280;6937;56.096;12.664;2022-08-01T10:27:02;104291.75;;;16.71;82.95
13732;BME280;6937;56.096;12.664;2022-08-01T10:29:40;104322.38;;;16.70;85.83
13732;BME280;6937;56.096;12.664;2022-08-01T10:32:07;104332.13;;;16.74;88.70
13732;BME280;6937;56.096;12.664;2022-08-01T10:34:35;104326.16;;;16.66;95.76
13732;BME280;6937;56.096;12.664;2022-08-01T10:37:01;104341.69;;;16.61;100.00
13732;BME280;6937;56.096;12.664;2022-08-01T10:39:26;104374.03;;;16.62;100.00
13732;BME280;6937;56.096;12.664;2022-08-01T10:41:55;104390.06;;;16.67;100.00
13732;BME280;6937;56.096;12.664;2022-08-01T10:44:21;104415.63;;;16.58;100.00
13732;BME280;6937;56.096;12.664;2022-08-01T10:46:50;104442.00;;;16.50;100.00
13732;BME280;6937;56.096;12.664;2022-08-01T10:49:20;104468.84;;;16.56;100.00
13732;BME280;6937;56.096;12.664;2022-08-01T10:51:47;104498.16;;;16.65;100.00
13732;BME280;6937;56.096;12.664;2022-08-01T10:54:13;104532.78;;;16.79;100.00
13732;BME280;6937;56.096;12.664;2022-08-01T10:56:43;104523.25;;;16.92;100.00
13732;BME280;6937;56.096;12.664;2022-08-01T10:59:09;104556.56;;;16.92;100.00
13732;BME280;6937;56.096;12.664;2022-08-01T11:01:35;104569.00;;;16.97;100.00
13732;BME280;6937;56.096;12.664;2022-08-01T11:09:05;104377.84;;;17.42;100.00
13732;BME280;6937;56.096;12.664;2022-08-01T11:12:02;104271.78;;;17.35;100.00
13732;BME280;6937;56.096;12.664;2022-08-01T11:14:30;104189.91;;;17.32;100.00
13732;BME280;6937;56.096;12.664;2022-08-01T11:16:55;104082.16;;;17.42;100.00
13732;BME280;6937;56.096;12.664;2022-08-01T11:19:22;103957.91;;;17.38;100.00
13732;BME280;6937;56.096;12.664;2022-08-01T11:27:21;103605.41;;;17.55;100.00
13732;BME280;6937;56.096;12.664;2022-08-01T11:32:48;103379.28;;;17.82;100.00
13732;BME280;6937;56.096;12.664;2022-08-01T11:35:13;103288.06;;;17.84;100.00
13732;BME280;6937;56.096;12.664;2022-08-01T11:37:39;103209.19;;;17.91;100.00
13732;BME280;6937;56.096;12.664;2022-08-01T11:40:25;103175.31;;;18.12;100.00
13732;BME280;6937;56.096;12.664;2022-08-01T11:48:22;103119.63;;;18.34;100.00
13732;BME280;6937;56.096;12.664;2022-08-01T11:50:50;103063.41;;;18.38;100.00
13732;BME280;6937;56.096;12.664;2022-08-01T11:53:15;102980.34;;;18.39;100.00
13732;BME280;6937;56.096;12.664;2022-08-01T11:55:50;102862.50;;;18.46;100.00
13732;BME280;6937;56.096;12.664;2022-08-01T11:58:24;102811.56;;;18.51;100.00
13732;BME280;6937;56.096;12.664;2022-08-01T12:00:57;102725.34;;;18.45;100.00
13732;BME280;6937;56.096;12.664;2022-08-01T12:03:24;102650.34;;;18.34;100.00
13732;BME280;6937;56.096;12.664;2022-08-01T12:05:52;102636.75;;;18.70;100.00
13732;BME280;6937;56.096;12.664;2022-08-01T12:08:28;102571.97;;;18.78;100.00
13732;BME280;6937;56.096;12.664;2022-08-01T12:10:54;102554.03;;;18.89;100.00
13732;BME280;6937;56.096;12.664;2022-08-01T12:13:20;102480.53;;;18.93;100.00
13732;BME280;6937;56.096;12.664;2022-08-01T12:15:46;102394.03;;;18.79;100.00
13732;BME280;6937;56.096;12.664;2022-08-01T12:18:12;102364.13;;;18.92;100.00
13732;BME280;6937;56.096;12.664;2022-08-01T12:20:39;102310.25;;;18.98;100.00
13732;BME280;6937;56.096;12.664;2022-08-01T12:23:06;102263.31;;;18.98;100.00
13732;BME280;6937;56.096;12.664;2022-08-01T12:25:32;102220.50;;;18.92;100.00
13732;BME280;6937;56.096;12.664;2022-08-01T12:28:06;102157.91;;;18.74;100.00
13732;BME280;6937;56.096;12.664;2022-08-01T12:30:33;102140.03;;;18.71;100.00
13732;BME280;6937;56.096;12.664;2022-08-01T12:33:08;102157.44;;;18.90;100.00
13732;BME280;6937;56.096;12.664;2022-08-01T12:35:35;102139.56;;;19.19;100.00
13732;BME280;6937;56.096;12.664;2022-08-01T12:38:04;102084.31;;;19.20;100.00
13732;BME280;6937;56.096;12.664;2022-08-01T12:40:32;102048.09;;;19.21;100.00
13732;BME280;6937;56.096;12.664;2022-08-01T12:43:00;102038.00;;;19.23;100.00
13732;BME280;6937;56.096;12.664;2022-08-01T12:45:29;101997.91;;;19.26;100.00
13732;BME280;6937;56.096;12.664;2022-08-01T12:47:56;101954.53;;;19.26;100.00
13732;BME280;6937;56.096;12.664;2022-08-01T12:50:29;101910.41;;;19.15;100.00
13732;BME280;6937;56.096;12.664;2022-08-01T12:52:56;101895.19;;;19.33;100.00
13732;BME280;6937;56.096;12.664;2022-08-01T12:55:26;101854.97;;;19.38;100.00
13732;BME280;6937;56.096;12.664;2022-08-01T12:58:06;101873.41;;;19.63;100.00
13732;BME280;6937;56.096;12.664;2022-08-01T13:00:32;101833.75;;;19.72;100.00
13732;BME280;6937;56.096;12.664;2022-08-01T13:03:02;101791.03;;;19.55;100.00
13732;BME280;6937;56.096;12.664;2022-08-01T13:06:01;101755.63;;;19.37;100.00
13732;BME280;6937;56.096;12.664;2022-08-01T13:11:11;101741.22;;;19.37;100.00